Time;durP1;ratioP1;P1;durP2;ratioP2;P2;SDS_P1;SDS_P2;PMS_P1;PMS_P2;Temp;Humidity;BMP_temperature;BMP_pressure;BME280_temperature;BME280_humidity;BME280_pressure;Samples;Min_cycle;Max_cycle;Signal;HPM_P1;HPM_P2
2023/09/12 00:00:05;;;;;;;17.83;12.30;;;;;;;;;;777274;178;916380;-59
2023/09/12 00:02:29;;;;;;;16.70;13.20;;;;;;;;;;763553;183;816455;-62
2023/09/12 00:04:55;;;;;;;13.10;11.50;;;;;;;;;;776733;181;913996;-59
2023/09/12 00:07:20;;;;;;;18.93;12.37;;;;;;;;;;773414;180;915309;-63
2023/09/12 00:09:46;;;;;;;18.63;13.90;;;;;;;;;;771763;178;919437;-59
2023/09/12 00:12:15;;;;;;;22.47;12.73;;;;;;;;;;781207;180;917581;-59
2023/09/12 00:14:41;;;;;;;15.60;13.97;;;;;;;;;;775895;177;918777;-64
2023/09/12 00:17:06;;;;;;;10.80;9.70;;;;;;;;;;769560;181;920402;-62
2023/09/12 00:19:32;;;;;;;12.70;10.57;;;;;;;;;;774170;180;920175;-64
2023/09/12 00:21:58;;;;;;;15.90;13.00;;;;;;;;;;779199;179;918177;-59
2023/09/12 00:24:24;;;;;;;19.70;12.13;;;;;;;;;;770761;181;820035;-59
2023/09/12 00:26:50;;;;;;;16.87;12.03;;;;;;;;;;773414;181;817066;-58
2023/09/12 00:29:16;;;;;;;17.73;11.40;;;;;;;;;;779063;177;817201;-63
2023/09/12 00:31:41;;;;;;;13.40;12.10;;;;;;;;;;775908;180;919498;-59
2023/09/12 00:34:07;;;;;;;14.23;11.90;;;;;;;;;;762421;183;919728;-59
2023/09/12 00:36:33;;;;;;;11.97;10.40;;;;;;;;;;772319;182;862663;-59
2023/09/12 00:38:59;;;;;;;15.80;12.80;;;;;;;;;;775207;177;815483;-62
2023/09/12 00:41:25;;;;;;;21.73;10.67;;;;;;;;;;772241;178;916414;-63
2023/09/12 00:43:51;;;;;;;14.87;13.30;;;;;;;;;;771503;178;919528;-62
2023/09/12 00:46:17;;;;;;;13.53;11.43;;;;;;;;;;778497;181;940839;-58
2023/09/12 00:48:42;;;;;;;17.50;12.47;;;;;;;;;;772753;180;919462;-62
2023/09/12 00:51:08;;;;;;;12.80;11.30;;;;;;;;;;771969;181;920735;-58
2023/09/12 00:53:34;;;;;;;13.40;12.07;;;;;;;;;;779439;180;816254;-58
2023/09/12 00:56:00;;;;;;;13.30;11.80;;;;;;;;;;775457;180;918921;-62
2023/09/12 00:58:26;;;;;;;16.03;12.90;;;;;;;;;;776847;177;919506;-64
2023/09/12 01:00:52;;;;;;;18.30;11.30;;;;;;;;;;774475;181;919659;-59
2023/09/12 01:03:17;;;;;;;13.97;12.20;;;;;;;;;;773589;180;918248;-59
2023/09/12 01:05:43;;;;;;;10.88;9.73;;;;;;;;;;775660;180;918997;-58
2023/09/12 01:08:10;;;;;;;12.20;10.90;;;;;;;;;;777415;180;916222;-62
2023/09/12 01:10:36;;;;;;;18.00;12.87;;;;;;;;;;774071;181;917097;-58
2023/09/12 01:13:02;;;;;;;14.07;12.57;;;;;;;;;;760873;180;916393;-63
2023/09/12 01:15:28;;;;;;;17.40;12.80;;;;;;;;;;773974;179;919934;-62
2023/09/12 01:17:53;;;;;;;20.20;13.70;;;;;;;;;;779242;180;916532;-58
2023/09/12 01:20:19;;;;;;;13.00;10.47;;;;;;;;;;771692;178;922310;-62
2023/09/12 01:22:47;;;;;;;17.50;13.37;;;;;;;;;;770101;181;918756;-64
2023/09/12 01:25:13;;;;;;;12.13;9.43;;;;;;;;;;780480;180;919946;-63
2023/09/12 01:27:39;;;;;;;15.67;10.60;;;;;;;;;;773259;178;918431;-63
2023/09/12 01:30:06;;;;;;;12.13;10.07;;;;;;;;;;775132;180;915201;-64
2023/09/12 01:32:32;;;;;;;14.40;12.88;;;;;;;;;;777380;180;918846;-58
2023/09/12 01:34:57;;;;;;;16.50;13.93;;;;;;;;;;774868;180;919956;-63
2023/09/12 01:37:23;;;;;;;16.70;13.00;;;;;;;;;;771460;177;918751;-64
2023/09/12 01:39:49;;;;;;;23.00;15.60;;;;;;;;;;769852;180;934880;-59
2023/09/12 01:42:15;;;;;;;27.63;17.40;;;;;;;;;;777815;178;830140;-57
2023/09/12 01:44:41;;;;;;;14.30;12.13;;;;;;;;;;776866;178;908087;-59
2023/09/12 01:47:07;;;;;;;18.23;14.07;;;;;;;;;;774138;177;920495;-63
2023/09/12 01:49:32;;;;;;;14.23;12.73;;;;;;;;;;769541;180;857812;-57
2023/09/12 01:51:59;;;;;;;19.80;14.87;;;;;;;;;;766376;181;919793;-58
2023/09/12 01:54:24;;;;;;;23.90;15.35;;;;;;;;;;776182;177;1022707;-63
2023/09/12 01:56:50;;;;;;;17.97;15.20;;;;;;;;;;778053;181;917041;-57
2023/09/12 01:59:16;;;;;;;16.50;13.50;;;;;;;;;;770819;181;918329;-58
2023/09/12 02:01:42;;;;;;;18.97;14.23;;;;;;;;;;767723;180;849232;-62
2023/09/12 02:04:08;;;;;;;22.47;14.77;;;;;;;;;;762311;182;919395;-59
2023/09/12 02:06:33;;;;;;;18.90;15.00;;;;;;;;;;780658;178;894347;-59
2023/09/12 02:08:59;;;;;;;20.10;17.00;;;;;;;;;;772301;178;831504;-64
2023/09/12 02:11:25;;;;;;;20.70;15.60;;;;;;;;;;775646;180;919421;-64
2023/09/12 02:13:51;;;;;;;18.60;15.37;;;;;;;;;;774083;180;919217;-63
2023/09/12 02:16:17;;;;;;;16.63;14.23;;;;;;;;;;771204;180;919146;-59
2023/09/12 02:18:43;;;;;;;16.50;14.07;;;;;;;;;;775424;180;921536;-59
2023/09/12 02:21:09;;;;;;;21.30;15.95;;;;;;;;;;779324;180;919238;-60
2023/09/12 02:23:35;;;;;;;20.67;16.10;;;;;;;;;;771392;180;919220;-64
2023/09/12 02:26:01;;;;;;;23.87;16.50;;;;;;;;;;769006;180;917593;-58
2023/09/12 02:28:26;;;;;;;25.27;15.47;;;;;;;;;;775695;180;920284;-64
2023/09/12 02:30:52;;;;;;;22.73;16.57;;;;;;;;;;768681;181;918900;-64
2023/09/12 02:33:18;;;;;;;18.87;15.50;;;;;;;;;;773317;179;918692;-64
2023/09/12 02:35:44;;;;;;;18.17;14.40;;;;;;;;;;771432;177;918695;-64
2023/09/12 02:38:10;;;;;;;18.03;14.77;;;;;;;;;;777009;180;919181;-59
2023/09/12 02:40:36;;;;;;;22.47;15.07;;;;;;;;;;775785;179;915917;-59
2023/09/12 02:43:01;;;;;;;24.20;17.50;;;;;;;;;;771825;180;911288;-60
2023/09/12 02:45:27;;;;;;;15.40;12.87;;;;;;;;;;769869;181;920035;-64
2023/09/12 02:47:53;;;;;;;18.50;14.33;;;;;;;;;;765518;178;915660;-59
2023/09/12 02:50:19;;;;;;;15.03;13.43;;;;;;;;;;771120;180;924161;-60
2023/09/12 02:52:45;;;;;;;15.60;13.90;;;;;;;;;;772057;181;918094;-59
2023/09/12 02:55:11;;;;;;;14.10;12.70;;;;;;;;;;774422;177;918605;-60
2023/09/12 02:57:37;;;;;;;14.63;12.77;;;;;;;;;;770977;178;819021;-65
2023/09/12 03:00:05;;;;;;;17.50;13.57;;;;;;;;;;767920;178;919522;-65
2023/09/12 03:02:29;;;;;;;13.90;12.43;;;;;;;;;;779893;180;815027;-64
2023/09/12 03:04:54;;;;;;;19.03;13.93;;;;;;;;;;774793;178;815174;-65
2023/09/12 03:07:20;;;;;;;16.13;14.20;;;;;;;;;;773183;181;920576;-65
2023/09/12 03:09:49;;;;;;;15.40;12.70;;;;;;;;;;776578;180;886240;-63
2023/09/12 03:12:15;;;;;;;21.30;14.40;;;;;;;;;;774988;178;818174;-66
2023/09/12 03:14:40;;;;;;;17.40;13.50;;;;;;;;;;769872;177;919032;-64
2023/09/12 03:17:06;;;;;;;18.73;15.50;;;;;;;;;;777631;180;919377;-60
2023/09/12 03:19:32;;;;;;;16.87;15.10;;;;;;;;;;776744;179;915809;-64
2023/09/12 03:21:58;;;;;;;19.10;13.48;;;;;;;;;;776585;180;918420;-60
2023/09/12 03:24:25;;;;;;;17.10;14.07;;;;;;;;;;771301;180;902625;-59
2023/09/12 03:26:50;;;;;;;17.67;14.83;;;;;;;;;;778760;180;918202;-64
2023/09/12 03:29:15;;;;;;;13.57;12.27;;;;;;;;;;772971;178;919306;-64
2023/09/12 03:31:41;;;;;;;17.45;13.13;;;;;;;;;;769518;181;918051;-64
2023/09/12 03:34:07;;;;;;;18.53;15.17;;;;;;;;;;774284;177;917457;-61
2023/09/12 03:36:33;;;;;;;16.67;14.13;;;;;;;;;;774881;178;907361;-60
2023/09/12 03:38:59;;;;;;;17.67;15.17;;;;;;;;;;776476;180;919666;-64
2023/09/12 03:41:25;;;;;;;16.93;13.93;;;;;;;;;;775432;176;920553;-60
2023/09/12 03:43:51;;;;;;;20.70;15.70;;;;;;;;;;770025;179;918991;-61
2023/09/12 03:46:16;;;;;;;20.17;15.00;;;;;;;;;;766804;180;919221;-61
2023/09/12 03:48:42;;;;;;;18.23;15.60;;;;;;;;;;770919;181;928055;-60
2023/09/12 03:51:08;;;;;;;16.10;14.50;;;;;;;;;;768329;181;918327;-65
2023/09/12 03:53:34;;;;;;;17.73;13.90;;;;;;;;;;773879;179;916181;-65
2023/09/12 03:56:00;;;;;;;28.40;15.77;;;;;;;;;;773894;181;816679;-61
2023/09/12 03:58:26;;;;;;;28.07;18.50;;;;;;;;;;780855;180;818511;-61
2023/09/12 04:00:51;;;;;;;25.70;20.77;;;;;;;;;;770089;177;917878;-60
2023/09/12 04:03:17;;;;;;;22.50;18.70;;;;;;;;;;757097;181;908512;-66
2023/09/12 04:05:43;;;;;;;25.50;18.23;;;;;;;;;;776796;180;819552;-65
2023/09/12 04:08:09;;;;;;;24.47;19.30;;;;;;;;;;764196;180;918081;-65
2023/09/12 04:10:35;;;;;;;23.00;17.83;;;;;;;;;;768057;181;918260;-65
2023/09/12 04:13:01;;;;;;;22.10;17.37;;;;;;;;;;773024;181;915768;-65
2023/09/12 04:15:26;;;;;;;18.73;15.90;;;;;;;;;;772902;179;920470;-65
2023/09/12 04:17:53;;;;;;;23.10;17.73;;;;;;;;;;768720;178;909717;-65
2023/09/12 04:20:18;;;;;;;19.03;17.00;;;;;;;;;;772452;179;919703;-65
2023/09/12 04:22:44;;;;;;;26.83;18.90;;;;;;;;;;779035;177;920379;-61
2023/09/12 04:25:10;;;;;;;23.00;17.60;;;;;;;;;;772484;180;919998;-60
2023/09/12 04:27:36;;;;;;;21.07;17.80;;;;;;;;;;770464;180;920619;-61
2023/09/12 04:30:02;;;;;;;23.20;18.53;;;;;;;;;;777812;176;890980;-66
2023/09/12 04:32:27;;;;;;;21.73;17.17;;;;;;;;;;758919;181;918390;-66
2023/09/12 04:34:53;;;;;;;22.60;18.03;;;;;;;;;;772178;178;923471;-61
2023/09/12 04:37:19;;;;;;;22.97;18.07;;;;;;;;;;780294;178;623838;-60
2023/09/12 04:39:45;;;;;;;20.73;16.50;;;;;;;;;;777534;180;633186;-60
2023/09/12 04:42:11;;;;;;;23.03;16.63;;;;;;;;;;777955;178;629819;-67
2023/09/12 04:44:37;;;;;;;21.40;16.90;;;;;;;;;;777132;180;627691;-61
2023/09/12 04:47:03;;;;;;;20.50;17.50;;;;;;;;;;774732;182;636853;-66
2023/09/12 04:49:28;;;;;;;18.00;15.50;;;;;;;;;;773598;180;634128;-66
2023/09/12 04:51:54;;;;;;;23.80;17.73;;;;;;;;;;779555;180;618334;-63
2023/09/12 04:54:20;;;;;;;22.20;16.33;;;;;;;;;;782451;180;631088;-65
2023/09/12 04:56:47;;;;;;;30.17;19.90;;;;;;;;;;775569;180;919742;-66
2023/09/12 04:59:12;;;;;;;22.20;17.37;;;;;;;;;;770126;181;959450;-63
2023/09/12 05:01:38;;;;;;;25.90;19.10;;;;;;;;;;780295;180;919295;-61
2023/09/12 05:04:03;;;;;;;24.07;19.50;;;;;;;;;;771310;177;817696;-67
2023/09/12 05:06:29;;;;;;;26.20;18.80;;;;;;;;;;775116;180;919280;-65
2023/09/12 05:08:55;;;;;;;23.07;19.30;;;;;;;;;;773899;178;924748;-67
2023/09/12 05:11:22;;;;;;;24.07;20.90;;;;;;;;;;768379;180;923208;-67
2023/09/12 05:13:48;;;;;;;22.87;18.63;;;;;;;;;;769013;180;918308;-62
2023/09/12 05:16:14;;;;;;;20.90;18.67;;;;;;;;;;773904;180;919521;-65
2023/09/12 05:18:39;;;;;;;28.58;20.58;;;;;;;;;;773508;179;919372;-66
2023/09/12 05:21:05;;;;;;;24.63;20.53;;;;;;;;;;769904;180;917935;-65
2023/09/12 05:23:31;;;;;;;23.53;19.03;;;;;;;;;;776614;179;862453;-61
2023/09/12 05:25:57;;;;;;;21.40;19.10;;;;;;;;;;778820;181;915613;-66
2023/09/12 05:28:23;;;;;;;24.10;19.43;;;;;;;;;;774191;181;916176;-66
2023/09/12 05:30:49;;;;;;;24.30;16.87;;;;;;;;;;770205;180;919412;-61
2023/09/12 05:33:14;;;;;;;20.03;17.80;;;;;;;;;;774191;177;815682;-66
2023/09/12 05:35:40;;;;;;;22.67;19.03;;;;;;;;;;768124;181;920477;-65
2023/09/12 05:38:06;;;;;;;20.73;18.53;;;;;;;;;;767927;181;919096;-61
2023/09/12 05:40:32;;;;;;;25.00;19.43;;;;;;;;;;769132;177;918592;-62
2023/09/12 05:42:58;;;;;;;25.30;18.93;;;;;;;;;;778646;179;919160;-65
2023/09/12 05:45:24;;;;;;;22.13;18.43;;;;;;;;;;776703;180;914562;-60
2023/09/12 05:47:50;;;;;;;22.55;18.37;;;;;;;;;;776634;179;920578;-61
2023/09/12 05:50:15;;;;;;;21.53;18.10;;;;;;;;;;780837;177;921038;-66
2023/09/12 05:52:42;;;;;;;23.90;18.40;;;;;;;;;;769840;181;818572;-66
2023/09/12 05:55:08;;;;;;;24.43;18.53;;;;;;;;;;762791;180;917686;-60
2023/09/12 05:57:34;;;;;;;20.43;18.23;;;;;;;;;;770442;181;919261;-68
2023/09/12 05:59:59;;;;;;;30.83;19.23;;;;;;;;;;775578;178;817575;-65
2023/09/12 06:02:25;;;;;;;21.80;17.83;;;;;;;;;;769957;180;917249;-60
2023/09/12 06:04:52;;;;;;;23.73;18.13;;;;;;;;;;772285;180;919104;-65
2023/09/12 06:07:18;;;;;;;20.47;16.43;;;;;;;;;;775125;178;916635;-65
2023/09/12 06:09:43;;;;;;;19.37;17.23;;;;;;;;;;770898;181;919971;-61
2023/09/12 06:12:09;;;;;;;20.40;17.67;;;;;;;;;;772572;179;912512;-60
2023/09/12 06:14:35;;;;;;;19.40;17.30;;;;;;;;;;778474;180;922495;-60
2023/09/12 06:17:01;;;;;;;22.80;17.10;;;;;;;;;;769192;180;921394;-64
2023/09/12 06:19:27;;;;;;;23.27;17.47;;;;;;;;;;773725;180;919484;-60
2023/09/12 06:21:53;;;;;;;16.40;14.63;;;;;;;;;;772292;180;919070;-60
2023/09/12 06:24:20;;;;;;;15.27;13.60;;;;;;;;;;761379;182;917680;-65
2023/09/12 06:26:45;;;;;;;20.27;13.40;;;;;;;;;;767687;181;817828;-60
2023/09/12 06:29:13;;;;;;;13.62;12.32;;;;;;;;;;772757;180;919480;-61
2023/09/12 06:31:37;;;;;;;15.13;12.80;;;;;;;;;;755986;184;918651;-61
2023/09/12 06:34:03;;;;;;;12.90;11.50;;;;;;;;;;774205;180;879188;-65
2023/09/12 06:36:29;;;;;;;14.17;11.73;;;;;;;;;;773579;180;914377;-64
2023/09/12 06:38:56;;;;;;;15.10;12.40;;;;;;;;;;778048;180;911737;-64
2023/09/12 06:41:22;;;;;;;18.30;12.90;;;;;;;;;;775650;180;914958;-65
2023/09/12 06:43:47;;;;;;;19.63;12.77;;;;;;;;;;773191;179;918568;-59
2023/09/12 06:46:13;;;;;;;12.37;11.07;;;;;;;;;;774268;181;918770;-60
2023/09/12 06:48:39;;;;;;;17.03;13.57;;;;;;;;;;774059;180;920226;-59
2023/09/12 06:51:05;;;;;;;19.83;12.97;;;;;;;;;;773564;180;919253;-67
2023/09/12 06:53:31;;;;;;;14.40;11.90;;;;;;;;;;779690;180;917146;-62
2023/09/12 06:55:58;;;;;;;17.20;13.63;;;;;;;;;;775897;180;895987;-60
2023/09/12 06:58:23;;;;;;;14.37;12.47;;;;;;;;;;775003;179;918754;-60
2023/09/12 07:00:49;;;;;;;14.47;11.00;;;;;;;;;;775593;181;919929;-60
2023/09/12 07:03:15;;;;;;;12.60;11.23;;;;;;;;;;780745;181;825578;-60
2023/09/12 07:05:41;;;;;;;18.90;12.80;;;;;;;;;;773923;179;820586;-60
2023/09/12 07:08:07;;;;;;;15.63;12.07;;;;;;;;;;775630;178;916708;-60
2023/09/12 07:10:32;;;;;;;17.63;14.43;;;;;;;;;;776592;178;902161;-64
2023/09/12 07:12:58;;;;;;;14.40;11.33;;;;;;;;;;773791;180;918485;-60
2023/09/12 07:15:24;;;;;;;17.58;13.38;;;;;;;;;;766403;180;917442;-65
2023/09/12 07:17:50;;;;;;;17.40;13.03;;;;;;;;;;766716;181;920673;-60
2023/09/12 07:20:17;;;;;;;13.93;12.10;;;;;;;;;;773648;179;933867;-65
2023/09/12 07:22:42;;;;;;;15.10;13.50;;;;;;;;;;760670;182;919161;-60
2023/09/12 07:25:09;;;;;;;13.43;12.00;;;;;;;;;;772283;181;920476;-65
2023/09/12 07:27:34;;;;;;;12.20;10.37;;;;;;;;;;777853;181;919460;-65
2023/09/12 07:30:00;;;;;;;14.70;9.90;;;;;;;;;;773771;180;917583;-65
2023/09/12 07:32:25;;;;;;;16.10;8.77;;;;;;;;;;771223;180;919258;-65
2023/09/12 07:34:51;;;;;;;12.57;9.17;;;;;;;;;;780848;181;920892;-61
2023/09/12 07:37:17;;;;;;;10.73;9.63;;;;;;;;;;772731;180;918907;-64
2023/09/12 07:39:43;;;;;;;20.40;10.93;;;;;;;;;;771474;181;915246;-61
2023/09/12 07:42:09;;;;;;;12.90;10.03;;;;;;;;;;779421;180;915107;-64
2023/09/12 07:44:35;;;;;;;11.27;9.57;;;;;;;;;;769016;178;912745;-65
2023/09/12 07:47:00;;;;;;;13.13;10.03;;;;;;;;;;769852;181;926605;-65
2023/09/12 07:49:26;;;;;;;11.57;9.70;;;;;;;;;;774227;180;916378;-64
2023/09/12 07:51:54;;;;;;;15.50;10.57;;;;;;;;;;781821;181;923809;-64
2023/09/12 07:54:18;;;;;;;11.67;10.40;;;;;;;;;;769143;177;921466;-60
2023/09/12 07:56:44;;;;;;;12.20;9.80;;;;;;;;;;768202;177;924024;-60
2023/09/12 07:59:12;;;;;;;10.97;9.80;;;;;;;;;;773031;178;915574;-60
2023/09/12 08:01:36;;;;;;;10.23;9.23;;;;;;;;;;772509;179;917831;-60
2023/09/12 08:04:03;;;;;;;10.07;8.13;;;;;;;;;;762045;182;890366;-60
2023/09/12 08:06:30;;;;;;;10.20;8.30;;;;;;;;;;779700;179;921955;-60
2023/09/12 08:08:54;;;;;;;30.50;9.83;;;;;;;;;;778271;179;922065;-60
2023/09/12 08:11:20;;;;;;;16.10;9.47;;;;;;;;;;777330;177;918296;-64
2023/09/12 08:13:46;;;;;;;9.80;8.67;;;;;;;;;;771735;177;919905;-59
2023/09/12 08:16:12;;;;;;;15.53;9.00;;;;;;;;;;766442;180;940777;-65
2023/09/12 08:18:38;;;;;;;12.40;8.80;;;;;;;;;;775145;181;919365;-60
2023/09/12 08:21:04;;;;;;;13.10;8.43;;;;;;;;;;769978;178;918326;-60
2023/09/12 08:23:29;;;;;;;12.17;8.10;;;;;;;;;;779455;181;919002;-64
2023/09/12 08:25:55;;;;;;;13.60;9.20;;;;;;;;;;775355;178;919511;-60
2023/09/12 08:28:21;;;;;;;11.60;8.37;;;;;;;;;;773665;180;920304;-65
2023/09/12 08:30:47;;;;;;;10.30;8.67;;;;;;;;;;779294;180;918775;-62
2023/09/12 08:33:13;;;;;;;10.07;7.73;;;;;;;;;;773338;177;920142;-61
2023/09/12 08:35:39;;;;;;;13.43;9.30;;;;;;;;;;772672;177;919100;-66
2023/09/12 08:38:05;;;;;;;11.30;8.60;;;;;;;;;;779480;181;820474;-66
2023/09/12 08:40:31;;;;;;;9.80;8.83;;;;;;;;;;774136;179;901063;-64
2023/09/12 08:42:56;;;;;;;15.77;8.90;;;;;;;;;;772160;180;934089;-64
2023/09/12 08:45:22;;;;;;;14.23;8.23;;;;;;;;;;774397;180;918018;-64
2023/09/12 08:47:51;;;;;;;13.20;8.97;;;;;;;;;;769182;181;919884;-64
2023/09/12 08:50:17;;;;;;;13.27;7.83;;;;;;;;;;770830;177;919277;-60
2023/09/12 08:52:42;;;;;;;15.77;10.20;;;;;;;;;;763947;181;923284;-59
2023/09/12 08:55:08;;;;;;;12.37;9.33;;;;;;;;;;779223;180;925337;-65
2023/09/12 08:57:34;;;;;;;12.17;8.17;;;;;;;;;;773276;180;923813;-62
2023/09/12 09:00:06;;;;;;;15.40;7.60;;;;;;;;;;772887;180;919041;-62
2023/09/12 09:02:32;;;;;;;8.93;8.00;;;;;;;;;;773462;180;919192;-61
2023/09/12 09:04:58;;;;;;;15.20;8.57;;;;;;;;;;767657;180;816004;-66
2023/09/12 09:07:24;;;;;;;12.47;8.07;;;;;;;;;;775035;177;917739;-66
2023/09/12 09:09:53;;;;;;;10.43;8.77;;;;;;;;;;773679;180;919459;-61
2023/09/12 09:12:16;;;;;;;18.23;9.20;;;;;;;;;;780222;180;918221;-60
2023/09/12 09:14:42;;;;;;;19.17;9.50;;;;;;;;;;767680;180;921304;-65
2023/09/12 09:17:10;;;;;;;12.07;9.20;;;;;;;;;;774148;179;919880;-65
2023/09/12 09:19:39;;;;;;;15.33;10.47;;;;;;;;;;780833;177;918064;-61
2023/09/12 09:22:05;;;;;;;16.33;9.27;;;;;;;;;;774464;181;921843;-60
2023/09/12 09:24:31;;;;;;;20.33;10.40;;;;;;;;;;776679;177;919501;-61
2023/09/12 09:27:00;;;;;;;13.90;9.30;;;;;;;;;;778803;180;717739;-64
2023/09/12 09:29:23;;;;;;;15.90;7.83;;;;;;;;;;778559;178;907926;-59
2023/09/12 09:31:49;;;;;;;10.03;8.87;;;;;;;;;;777652;177;624932;-67
2023/09/12 09:34:14;;;;;;;15.63;8.47;;;;;;;;;;774445;181;628487;-60
2023/09/12 09:36:42;;;;;;;12.17;8.47;;;;;;;;;;778919;180;859733;-60
2023/09/12 09:39:07;;;;;;;10.97;8.80;;;;;;;;;;780763;176;628007;-61
2023/09/12 09:41:33;;;;;;;16.13;9.50;;;;;;;;;;776659;178;916155;-61
2023/09/12 09:43:59;;;;;;;14.03;9.10;;;;;;;;;;774315;179;919394;-65
2023/09/12 09:46:24;;;;;;;13.83;9.70;;;;;;;;;;773066;179;919170;-65
2023/09/12 09:48:50;;;;;;;18.93;11.00;;;;;;;;;;771482;180;918126;-65
2023/09/12 09:51:16;;;;;;;16.07;9.33;;;;;;;;;;769475;181;917590;-60
2023/09/12 09:53:43;;;;;;;11.97;9.17;;;;;;;;;;774613;181;917973;-60
2023/09/12 09:56:09;;;;;;;12.50;9.03;;;;;;;;;;772773;180;918785;-61
2023/09/12 09:58:34;;;;;;;13.93;9.67;;;;;;;;;;772931;181;920703;-59
2023/09/12 10:01:00;;;;;;;11.37;8.93;;;;;;;;;;780047;180;824127;-65
2023/09/12 10:03:28;;;;;;;11.60;9.83;;;;;;;;;;774111;180;916643;-67
2023/09/12 10:05:52;;;;;;;11.20;8.30;;;;;;;;;;769144;181;919252;-60
2023/09/12 10:08:18;;;;;;;13.87;9.60;;;;;;;;;;781496;180;903914;-61
2023/09/12 10:10:44;;;;;;;12.90;8.17;;;;;;;;;;771677;181;919352;-59
2023/09/12 10:13:09;;;;;;;21.67;9.20;;;;;;;;;;770568;180;913942;-63
2023/09/12 10:15:35;;;;;;;20.23;8.80;;;;;;;;;;774420;179;935424;-59
2023/09/12 10:18:01;;;;;;;9.57;8.53;;;;;;;;;;780388;180;918561;-65
2023/09/12 10:20:28;;;;;;;16.43;8.90;;;;;;;;;;775514;180;923164;-64
2023/09/12 10:22:55;;;;;;;11.80;8.70;;;;;;;;;;773832;180;921349;-65
2023/09/12 10:25:21;;;;;;;14.53;8.47;;;;;;;;;;778285;181;919245;-65
2023/09/12 10:27:47;;;;;;;18.10;10.10;;;;;;;;;;776308;179;920240;-59
2023/09/12 10:30:13;;;;;;;13.40;9.03;;;;;;;;;;779358;180;917412;-59
2023/09/12 10:32:39;;;;;;;13.97;8.60;;;;;;;;;;780373;180;917084;-64
2023/09/12 10:35:05;;;;;;;13.37;8.43;;;;;;;;;;763583;177;918788;-58
2023/09/12 10:37:31;;;;;;;13.90;9.40;;;;;;;;;;760733;181;863727;-59
2023/09/12 10:39:57;;;;;;;11.67;8.50;;;;;;;;;;773872;177;920360;-64
2023/09/12 10:42:23;;;;;;;15.80;9.10;;;;;;;;;;779837;179;918581;-59
2023/09/12 10:44:48;;;;;;;15.87;8.40;;;;;;;;;;773840;181;941052;-59
2023/09/12 10:47:14;;;;;;;14.10;8.93;;;;;;;;;;771497;180;920813;-60
2023/09/12 10:49:40;;;;;;;15.30;8.80;;;;;;;;;;780035;180;819663;-60
2023/09/12 10:52:06;;;;;;;16.90;8.50;;;;;;;;;;775298;177;938625;-65
2023/09/12 10:54:39;;;;;;;24.83;8.87;;;;;;;;;;772083;178;916388;-59
2023/09/12 10:57:06;;;;;;;14.90;10.40;;;;;;;;;;772078;177;914926;-64
2023/09/12 10:59:35;;;;;;;14.47;8.70;;;;;;;;;;780619;180;886984;-59
2023/09/12 11:01:57;;;;;;;17.27;8.50;;;;;;;;;;774236;180;940059;-59
2023/09/12 11:04:34;;;;;;;17.50;8.53;;;;;;;;;;772636;180;916939;-66
2023/09/12 11:06:58;;;;;;;16.47;8.40;;;;;;;;;;768207;177;919563;-60
2023/09/12 11:09:24;;;;;;;16.90;9.47;;;;;;;;;;772347;180;918110;-60
2023/09/12 11:11:59;;;;;;;13.67;9.20;;;;;;;;;;773028;181;919173;-60
2023/09/12 11:14:26;;;;;;;17.37;9.60;;;;;;;;;;771444;179;919511;-66
2023/09/12 11:16:56;;;;;;;10.50;7.83;;;;;;;;;;775531;181;912903;-60
2023/09/12 11:19:23;;;;;;;13.43;8.23;;;;;;;;;;781346;179;818304;-60
2023/09/12 11:21:49;;;;;;;16.70;8.23;;;;;;;;;;772604;180;919324;-66
2023/09/12 11:24:15;;;;;;;21.80;9.67;;;;;;;;;;773833;180;919104;-60
2023/09/12 11:26:47;;;;;;;11.57;8.73;;;;;;;;;;777145;180;919157;-60
2023/09/12 11:29:13;;;;;;;14.13;8.73;;;;;;;;;;777107;180;919002;-60
2023/09/12 11:31:42;;;;;;;18.10;10.30;;;;;;;;;;773387;181;919472;-66
2023/09/12 11:34:05;;;;;;;13.50;8.60;;;;;;;;;;771527;179;917818;-66
2023/09/12 11:36:31;;;;;;;12.80;8.83;;;;;;;;;;777644;180;917122;-66
2023/09/12 11:38:56;;;;;;;12.67;8.13;;;;;;;;;;770472;180;826791;-60
2023/09/12 11:41:28;;;;;;;11.40;8.60;;;;;;;;;;774755;178;919952;-66
2023/09/12 11:43:54;;;;;;;10.87;8.53;;;;;;;;;;782216;177;624859;-67
2023/09/12 11:46:20;;;;;;;16.30;8.40;;;;;;;;;;778128;180;629119;-65
2023/09/12 11:48:46;;;;;;;9.60;8.03;;;;;;;;;;781956;180;632845;-61
2023/09/12 11:51:11;;;;;;;14.60;9.30;;;;;;;;;;778785;178;623387;-66
2023/09/12 11:53:37;;;;;;;9.30;8.40;;;;;;;;;;783042;177;631688;-60
2023/09/12 11:56:03;;;;;;;12.50;8.17;;;;;;;;;;773919;180;919544;-60
2023/09/12 11:58:29;;;;;;;15.60;8.77;;;;;;;;;;770390;178;919265;-61
2023/09/12 12:00:55;;;;;;;16.50;8.57;;;;;;;;;;775069;181;919546;-61
2023/09/12 12:03:22;;;;;;;15.40;8.33;;;;;;;;;;775856;180;840056;-60
2023/09/12 12:05:47;;;;;;;13.85;8.65;;;;;;;;;;774884;177;914217;-59
2023/09/12 12:08:13;;;;;;;15.40;8.90;;;;;;;;;;777822;179;914220;-66
2023/09/12 12:10:40;;;;;;;12.83;8.77;;;;;;;;;;772620;181;919050;-67
2023/09/12 12:13:05;;;;;;;12.67;9.10;;;;;;;;;;775971;178;918784;-61
2023/09/12 12:15:32;;;;;;;9.90;8.47;;;;;;;;;;772998;180;918838;-61
2023/09/12 12:17:57;;;;;;;22.07;9.20;;;;;;;;;;776301;181;919978;-61
2023/09/12 12:20:23;;;;;;;15.20;8.30;;;;;;;;;;771808;181;918738;-60
2023/09/12 12:22:48;;;;;;;18.00;7.80;;;;;;;;;;772855;180;921690;-66
2023/09/12 12:25:14;;;;;;;11.20;8.10;;;;;;;;;;779703;179;816466;-61
2023/09/12 12:27:40;;;;;;;16.70;8.83;;;;;;;;;;768868;179;916628;-60
2023/09/12 12:30:08;;;;;;;13.83;8.60;;;;;;;;;;769162;180;919149;-60
2023/09/12 12:32:33;;;;;;;13.57;8.80;;;;;;;;;;778724;180;818951;-66
2023/09/12 12:34:59;;;;;;;9.57;8.67;;;;;;;;;;759789;181;920101;-68
2023/09/12 12:37:30;;;;;;;12.93;8.50;;;;;;;;;;772473;178;846946;-67
2023/09/12 12:39:54;;;;;;;16.17;8.40;;;;;;;;;;772225;180;919664;-65
2023/09/12 12:42:23;;;;;;;12.30;8.80;;;;;;;;;;774166;180;861137;-61
2023/09/12 12:44:45;;;;;;;15.33;8.70;;;;;;;;;;763836;181;919642;-66
2023/09/12 12:47:12;;;;;;;11.40;8.33;;;;;;;;;;768118;180;919118;-66
2023/09/12 12:49:38;;;;;;;13.10;9.07;;;;;;;;;;778279;180;919371;-67
2023/09/12 12:52:03;;;;;;;11.13;8.20;;;;;;;;;;773582;180;920844;-60
2023/09/12 12:54:29;;;;;;;12.43;9.02;;;;;;;;;;772198;177;1178976;-66
2023/09/12 12:56:55;;;;;;;10.60;8.73;;;;;;;;;;780963;180;712991;-60
2023/09/12 12:59:21;;;;;;;13.37;8.80;;;;;;;;;;773787;180;919830;-61
2023/09/12 13:01:46;;;;;;;18.07;8.37;;;;;;;;;;772001;180;919155;-65
2023/09/12 13:04:12;;;;;;;10.80;8.83;;;;;;;;;;773811;180;917308;-66
2023/09/12 13:06:39;;;;;;;12.43;8.30;;;;;;;;;;776668;178;920450;-66
2023/09/12 13:09:05;;;;;;;17.97;9.67;;;;;;;;;;774837;180;919179;-66
2023/09/12 13:11:34;;;;;;;14.23;8.80;;;;;;;;;;774420;181;909655;-66
2023/09/12 13:13:57;;;;;;;18.80;9.83;;;;;;;;;;775769;181;916777;-66
2023/09/12 13:16:23;;;;;;;15.70;9.27;;;;;;;;;;775591;180;890846;-67
2023/09/12 13:18:49;;;;;;;11.93;9.60;;;;;;;;;;773853;178;921206;-61
2023/09/12 13:21:15;;;;;;;17.70;9.47;;;;;;;;;;777234;180;817676;-66
2023/09/12 13:23:41;;;;;;;13.00;9.70;;;;;;;;;;770123;180;951582;-61
2023/09/12 13:26:07;;;;;;;10.33;9.00;;;;;;;;;;773849;180;718135;-66
2023/09/12 13:28:33;;;;;;;11.33;8.70;;;;;;;;;;769449;181;920980;-61
2023/09/12 13:30:59;;;;;;;9.50;8.10;;;;;;;;;;771683;181;619171;-66
2023/09/12 13:33:25;;;;;;;13.33;8.13;;;;;;;;;;776682;181;623436;-64
2023/09/12 13:35:51;;;;;;;13.40;8.40;;;;;;;;;;778707;180;619144;-61
2023/09/12 13:38:18;;;;;;;10.03;8.87;;;;;;;;;;778773;180;790773;-67
2023/09/12 13:40:42;;;;;;;13.77;8.77;;;;;;;;;;760345;182;918111;-69
2023/09/12 13:43:08;;;;;;;21.80;8.52;;;;;;;;;;771817;179;908255;-61
2023/09/12 13:45:34;;;;;;;12.30;9.23;;;;;;;;;;778760;180;920241;-61
2023/09/12 13:48:01;;;;;;;17.53;9.60;;;;;;;;;;773822;180;817124;-66
2023/09/12 13:50:28;;;;;;;18.60;9.47;;;;;;;;;;777114;181;625043;-61
2023/09/12 13:52:55;;;;;;;11.40;9.63;;;;;;;;;;778561;181;623764;-66
2023/09/12 13:55:20;;;;;;;10.93;8.90;;;;;;;;;;766949;181;865333;-61
2023/09/12 13:57:46;;;;;;;13.87;8.73;;;;;;;;;;771272;181;817378;-60
2023/09/12 14:00:12;;;;;;;13.40;9.40;;;;;;;;;;773914;181;921271;-69
2023/09/12 14:02:38;;;;;;;14.80;8.50;;;;;;;;;;782360;178;835339;-60